Terminal Aerodrome Forecast
Issued by NWS Kansas City/Pleasant Hill, MO

Home | Current Version | Previous Version | Text Only | Print | Product List | Glossary On
Versions: 1 2 3 4 5 6 7 8 9 10 11 12 13 14 15 16 17 18
000
FTUS43 KEAX 242000 AAA
TAFMCI
TAF AMD
KMCI 242023Z 2420/2518 17010G20KT P6SM OVC015
     FM250100 17014G23KT P6SM -SHRA VCTS BKN025CB
      TEMPO 2504/2508 -TSRA BKN025CB
     FM250900 22010KT P6SM -SHRA OVC015
     FM251500 27012KT P6SM BKN015=

USA.gov is the U.S. government's official web portal to all federal, state and local government web resources and services.